Time;durP1;ratioP1;P1;durP2;ratioP2;P2;SDS_P1;SDS_P2;PMS_P1;PMS_P2;Temp;Humidity;BMP_temperature;BMP_pressure;BME280_temperature;BME280_humidity;BME280_pressure;Samples;Min_cycle;Max_cycle;Signal;HPM_P1;HPM_P2
2022/07/11 00:00:09;;;;;;;5.68;1.33;;;;;;;13.12;61.21;101449.31;7396705;19;20540;-64
2022/07/11 00:02:39;;;;;;;6.50;1.42;;;;;;;13.08;61.38;101446.75;7396338;19;20066;-65
2022/07/11 00:05:08;;;;;;;4.53;1.55;;;;;;;13.03;61.31;101446.88;7397602;19;20021;-64
2022/07/11 00:07:40;;;;;;;6.65;1.30;;;;;;;13.01;61.77;101453.94;7397954;19;20018;-65
2022/07/11 00:10:09;;;;;;;6.15;1.60;;;;;;;12.98;61.64;101454.00;7396166;19;20018;-65
2022/07/11 00:12:38;;;;;;;5.13;1.20;;;;;;;12.95;62.07;101448.78;7397453;19;20078;-65
2022/07/11 00:15:07;;;;;;;4.30;1.33;;;;;;;12.92;61.89;101447.09;7397833;19;20035;-65
2022/07/11 00:17:35;;;;;;;6.75;1.40;;;;;;;12.90;62.21;101448.88;7395778;19;20018;-65
2022/07/11 00:20:04;;;;;;;5.45;1.45;;;;;;;12.86;62.16;101445.44;7395604;19;20026;-65
2022/07/11 00:22:33;;;;;;;8.05;1.25;;;;;;;12.83;62.40;101445.50;7395614;19;20031;-65
2022/07/11 00:25:04;;;;;;;4.55;1.50;;;;;;;12.79;62.59;101443.84;7396689;19;20047;-65
2022/07/11 00:27:33;;;;;;;5.88;1.38;;;;;;;12.74;62.82;101439.53;7396531;19;20018;-65
2022/07/11 00:30:01;;;;;;;8.68;1.88;;;;;;;12.72;62.98;101442.22;7396487;19;20035;-65
2022/07/11 00:32:30;;;;;;;5.18;1.35;;;;;;;12.67;63.15;101444.06;7397277;19;20018;-65
2022/07/11 00:34:58;;;;;;;8.45;1.40;;;;;;;12.64;63.31;101446.78;7394966;19;20509;-65
2022/07/11 00:37:27;;;;;;;5.43;0.98;;;;;;;12.60;63.58;101442.44;7396997;19;20014;-65
2022/07/11 00:39:59;;;;;;;6.60;1.10;;;;;;;12.58;63.56;101439.00;7394720;19;20074;-65
2022/07/11 00:42:30;;;;;;;6.13;1.70;;;;;;;12.53;63.81;101439.91;7396824;19;20018;-65
2022/07/11 00:44:58;;;;;;;5.93;1.63;;;;;;;12.48;63.75;101441.78;7396428;19;20378;-65
2022/07/11 00:47:33;;;;;;;6.32;1.83;;;;;;;12.43;63.94;101443.63;7395972;19;20015;-65
2022/07/11 00:50:02;;;;;;;9.18;1.65;;;;;;;12.38;64.30;101440.22;7395767;19;20023;-65
2022/07/11 00:52:31;;;;;;;7.78;1.85;;;;;;;12.34;64.52;101439.41;7395353;19;20431;-65
2022/07/11 00:55:00;;;;;;;6.78;1.70;;;;;;;12.28;64.79;101439.50;7394000;19;20501;-66
2022/07/11 00:57:32;;;;;;;8.18;1.63;;;;;;;12.25;65.02;101451.88;7395930;19;20028;-65
2022/07/11 01:00:01;;;;;;;7.72;1.85;;;;;;;12.19;64.91;101448.41;7394096;19;20419;-66
2022/07/11 01:02:30;;;;;;;5.95;1.60;;;;;;;12.15;65.16;101444.13;7395418;19;20019;-65
2022/07/11 01:04:59;;;;;;;5.25;1.67;;;;;;;12.11;65.24;101452.97;7395785;19;20023;-66
2022/07/11 01:07:28;;;;;;;6.32;1.55;;;;;;;12.08;65.54;101447.75;7394131;19;20022;-65
2022/07/11 01:09:56;;;;;;;4.35;1.50;;;;;;;12.05;65.64;101450.44;7393965;19;20015;-65
2022/07/11 01:12:25;;;;;;;4.10;1.48;;;;;;;12.01;65.69;101446.13;7393419;19;20525;-65
2022/07/11 01:14:57;;;;;;;8.65;1.88;;;;;;;11.98;66.02;101443.53;7396228;19;20014;-65
2022/07/11 01:17:26;;;;;;;4.35;2.03;;;;;;;11.95;66.05;101447.03;7395753;19;20018;-66
2022/07/11 01:19:54;;;;;;;6.95;1.40;;;;;;;11.92;66.39;101448.84;7394534;19;20015;-66
2022/07/11 01:22:27;;;;;;;7.35;1.55;;;;;;;11.87;66.29;101439.28;7395003;19;20031;-66
2022/07/11 01:24:58;;;;;;;5.95;1.55;;;;;;;11.84;66.57;101449.84;7395605;19;20010;-66
2022/07/11 01:27:28;;;;;;;4.82;1.60;;;;;;;11.82;66.65;101449.00;7393190;19;20424;-66
2022/07/11 01:29:56;;;;;;;10.18;2.00;;;;;;;11.80;66.79;101444.66;7393177;19;20082;-66
2022/07/11 01:32:25;;;;;;;7.57;1.42;;;;;;;11.77;66.85;101436.84;7393169;19;20035;-66
2022/07/11 01:34:53;;;;;;;5.10;1.88;;;;;;;11.76;67.10;101440.34;7393140;19;20078;-66
2022/07/11 01:37:22;;;;;;;9.48;1.98;;;;;;;11.74;67.77;101440.38;7393492;19;20545;-66
2022/07/11 01:39:50;;;;;;;9.73;1.70;;;;;;;11.72;67.36;101443.00;7407842;19;20035;-63
2022/07/11 01:42:21;;;;;;;6.20;1.38;;;;;;;11.69;67.54;101440.44;7408140;19;20027;-66
2022/07/11 01:44:50;;;;;;;5.35;1.30;;;;;;;11.67;67.56;101442.22;7407307;19;20022;-66
2022/07/11 01:47:18;;;;;;;7.30;1.80;;;;;;;11.63;67.81;101442.31;7408515;19;20031;-66
2022/07/11 01:49:47;;;;;;;5.28;1.55;;;;;;;11.61;67.95;101438.81;7406507;19;20050;-64
2022/07/11 01:52:15;;;;;;;7.00;1.80;;;;;;;11.57;68.02;101438.88;7406616;19;20070;-65
2022/07/11 01:54:44;;;;;;;8.65;2.00;;;;;;;11.55;68.18;101438.03;7406612;19;20035;-65
2022/07/11 01:57:12;;;;;;;10.30;1.90;;;;;;;11.53;68.24;101441.56;7408310;19;20082;-65
2022/07/11 01:59:43;;;;;;;6.25;2.17;;;;;;;11.51;68.73;101446.84;7407722;19;20035;-65
2022/07/11 02:02:12;;;;;;;5.70;1.58;;;;;;;11.48;68.56;101431.09;7406574;19;20033;-65
2022/07/11 02:04:41;;;;;;;8.40;1.67;;;;;;;11.46;68.63;101440.78;7405540;19;20011;-65
2022/07/11 02:07:11;;;;;;;5.80;1.63;;;;;;;11.42;68.75;101433.81;7407418;19;20015;-64
2022/07/11 02:09:39;;;;;;;5.25;1.67;;;;;;;11.38;69.11;101435.63;7406787;19;20015;-64
2022/07/11 02:12:09;;;;;;;6.38;1.48;;;;;;;11.37;69.24;101427.75;7408025;19;20560;-65
2022/07/11 02:14:46;;;;;;;5.90;1.95;;;;;;;11.34;69.63;101433.94;7408561;19;20042;-66
2022/07/11 02:17:15;;;;;;;5.93;1.98;;;;;;;11.31;69.17;101423.47;7408365;19;20019;-65
2022/07/11 02:19:43;;;;;;;8.05;2.05;;;;;;;11.30;69.20;101428.72;7406286;19;20481;-64
2022/07/11 02:22:15;;;;;;;5.68;1.70;;;;;;;11.28;69.29;101427.91;7404976;19;20509;-64
2022/07/11 02:24:43;;;;;;;8.75;2.90;;;;;;;11.24;69.57;101427.94;7405682;19;20025;-64
2022/07/11 02:27:12;;;;;;;10.00;2.17;;;;;;;11.21;69.56;101438.50;7406002;19;20074;-64
2022/07/11 02:29:40;;;;;;;13.45;3.20;;;;;;;11.18;70.17;101440.28;7405179;19;20018;-65
2022/07/11 02:32:12;;;;;;;5.68;2.35;;;;;;;11.16;69.99;101437.69;7405207;19;20094;-65
2022/07/11 02:34:40;;;;;;;7.13;1.90;;;;;;;11.16;69.93;101439.44;7407468;19;20014;-65
2022/07/11 02:37:09;;;;;;;7.20;1.60;;;;;;;11.13;69.92;101447.34;7405674;19;20018;-64
2022/07/11 02:39:37;;;;;;;5.05;1.55;;;;;;;11.11;69.99;101443.88;7404769;19;20035;-65
2022/07/11 02:42:07;;;;;;;9.75;1.90;;;;;;;11.09;70.09;101449.16;7406625;19;20010;-65
2022/07/11 02:44:35;;;;;;;7.05;1.67;;;;;;;11.05;70.17;101443.06;7404831;19;20039;-65
2022/07/11 02:47:04;;;;;;;10.70;2.40;;;;;;;11.04;70.20;101450.97;7406996;19;20090;-65
2022/07/11 02:49:35;;;;;;;5.75;1.90;;;;;;;11.03;70.61;101451.84;7403602;19;20022;-65
2022/07/11 02:52:03;;;;;;;6.78;1.75;;;;;;;11.00;70.50;101449.28;7396879;19;20070;-65
2022/07/11 02:54:32;;;;;;;8.57;2.05;;;;;;;10.97;70.49;101451.91;7397237;19;20022;-66
2022/07/11 02:57:01;;;;;;;7.20;2.25;;;;;;;10.94;70.51;101450.19;7396841;19;20014;-67
2022/07/11 02:59:29;;;;;;;6.60;2.00;;;;;;;10.91;70.86;101448.47;7398936;19;20032;-66
2022/07/11 03:01:58;;;;;;;4.45;1.52;;;;;;;10.88;70.94;101455.53;7398971;19;20007;-65
2022/07/11 03:04:27;;;;;;;7.40;2.38;;;;;;;10.84;71.15;101454.72;7397282;19;20018;-65
2022/07/11 03:06:58;;;;;;;5.03;1.60;;;;;;;10.81;71.40;101465.22;7399240;19;20010;-65
2022/07/11 03:09:26;;;;;;;9.00;2.20;;;;;;;10.78;71.24;101469.63;7399296;19;20031;-65
2022/07/11 03:11:55;;;;;;;7.30;2.00;;;;;;;10.74;71.41;101467.06;7399248;19;20039;-66
2022/07/11 03:14:23;;;;;;;6.38;2.15;;;;;;;10.70;71.72;101470.63;7398684;19;20018;-65
2022/07/11 03:16:52;;;;;;;10.18;2.10;;;;;;;10.68;71.72;101474.13;7398641;19;20086;-66
2022/07/11 03:19:20;;;;;;;5.03;1.92;;;;;;;10.66;71.72;101470.66;7398576;19;20443;-66
2022/07/11 03:21:49;;;;;;;6.15;1.80;;;;;;;10.63;71.94;101481.16;7398306;19;20517;-65
2022/07/11 03:24:20;;;;;;;4.35;1.75;;;;;;;10.62;72.32;101484.69;7396700;19;20015;-65
2022/07/11 03:26:48;;;;;;;7.18;1.85;;;;;;;10.63;71.84;101487.31;7396573;19;20010;-66
2022/07/11 03:29:17;;;;;;;11.38;3.22;;;;;;;10.63;71.73;101491.66;7396101;19;20039;-65
2022/07/11 03:31:46;;;;;;;8.25;2.42;;;;;;;10.64;71.85;101488.16;7398472;19;20010;-66
2022/07/11 03:34:14;;;;;;;6.72;2.65;;;;;;;10.64;71.68;101490.78;7397833;19;20478;-66
2022/07/11 03:36:44;;;;;;;8.98;2.60;;;;;;;10.66;71.59;101492.50;7397964;19;20035;-66
2022/07/11 03:39:12;;;;;;;6.63;1.90;;;;;;;10.69;71.56;101491.59;7395506;19;20026;-66
2022/07/11 03:41:44;;;;;;;8.48;2.17;;;;;;;10.67;71.80;101493.41;7397213;19;20021;-66
2022/07/11 03:44:13;;;;;;;8.13;2.15;;;;;;;10.67;71.82;101490.78;7396115;19;20018;-65
2022/07/11 03:46:41;;;;;;;3.65;1.80;;;;;;;10.66;72.08;101491.66;7398025;19;20019;-65
2022/07/11 03:49:09;;;;;;;7.05;1.73;;;;;;;10.64;72.04;101491.66;7395070;19;20014;-65
2022/07/11 03:51:38;;;;;;;6.95;2.30;;;;;;;10.62;72.31;101490.81;7395508;19;20026;-65
2022/07/11 03:54:07;;;;;;;7.13;2.22;;;;;;;10.56;72.37;101478.63;7394910;19;20022;-66
2022/07/11 03:56:36;;;;;;;6.40;2.08;;;;;;;10.55;72.46;101473.38;7395520;19;20023;-65
2022/07/11 03:59:07;;;;;;;4.35;2.00;;;;;;;10.56;72.60;101478.63;7394830;19;20010;-66
2022/07/11 04:01:35;;;;;;;9.20;1.95;;;;;;;10.56;72.72;101480.38;7396530;19;20018;-65
2022/07/11 04:04:08;;;;;;;5.78;1.40;;;;;;;10.55;72.72;101474.25;7396116;19;20025;-65
2022/07/11 04:06:36;;;;;;;6.88;2.08;;;;;;;10.56;72.67;101481.25;7397286;19;20484;-66
2022/07/11 04:09:05;;;;;;;6.78;2.15;;;;;;;10.56;73.00;101485.63;7396268;19;20022;-66
2022/07/11 04:11:33;;;;;;;8.23;2.05;;;;;;;10.53;72.87;101483.03;7394467;19;20078;-65
2022/07/11 04:14:02;;;;;;;7.70;2.13;;;;;;;10.58;73.13;101489.97;7396809;19;20018;-66
2022/07/11 04:16:33;;;;;;;7.65;1.90;;;;;;;10.59;73.28;101481.22;7396094;19;20491;-66
2022/07/11 04:19:01;;;;;;;9.80;2.88;;;;;;;10.61;73.10;101485.56;7395514;19;20018;-66
2022/07/11 04:21:30;;;;;;;7.72;2.38;;;;;;;10.62;73.36;101479.44;7396544;19;20026;-66
2022/07/11 04:23:58;;;;;;;7.88;2.28;;;;;;;10.64;73.52;101480.28;7395307;19;20381;-66
2022/07/11 04:26:27;;;;;;;8.23;2.10;;;;;;;10.65;73.57;101484.66;7394073;19;20032;-66
2022/07/11 04:28:55;;;;;;;9.00;2.15;;;;;;;10.67;73.60;101480.28;7396314;19;20119;-66
2022/07/11 04:31:24;;;;;;;5.50;2.22;;;;;;;10.70;73.77;101473.25;7394294;19;20023;-66
2022/07/11 04:33:55;;;;;;;7.85;1.83;;;;;;;10.74;73.76;101474.03;7395686;19;20079;-66
2022/07/11 04:36:24;;;;;;;7.82;2.22;;;;;;;10.78;73.46;101480.13;7394232;19;20035;-67
2022/07/11 04:38:52;;;;;;;7.18;2.03;;;;;;;10.82;74.10;101472.22;7395846;19;20018;-67
2022/07/11 04:41:21;;;;;;;7.50;1.98;;;;;;;10.86;73.76;101478.31;7394198;19;20022;-67
2022/07/11 04:43:49;;;;;;;8.55;2.60;;;;;;;10.90;73.90;101480.88;7394118;19;20105;-65
2022/07/11 04:46:18;;;;;;;5.38;1.73;;;;;;;10.95;73.72;101483.44;7393786;19;20346;-65
2022/07/11 04:48:46;;;;;;;8.63;2.20;;;;;;;10.97;74.08;101479.06;7395670;19;20379;-65
2022/07/11 04:51:17;;;;;;;6.10;1.95;;;;;;;11.01;74.35;101483.38;7393122;19;20481;-65
2022/07/11 04:53:46;;;;;;;6.15;1.85;;;;;;;11.06;73.67;101478.09;7393888;19;20022;-66
2022/07/11 04:56:14;;;;;;;6.15;1.73;;;;;;;11.10;73.81;101486.81;7395282;19;20495;-64
2022/07/11 04:58:43;;;;;;;9.20;2.33;;;;;;;11.14;73.67;101489.34;7395077;19;20014;-65
2022/07/11 05:01:11;;;;;;;7.82;1.98;;;;;;;11.18;73.59;101491.03;7392583;19;20018;-66
2022/07/11 05:03:40;;;;;;;6.93;2.42;;;;;;;11.22;73.80;101499.75;7394104;19;20485;-66
2022/07/11 05:06:08;;;;;;;7.78;1.80;;;;;;;11.24;73.62;101496.22;7394090;19;20463;-66
2022/07/11 05:08:40;;;;;;;5.32;1.80;;;;;;;11.29;73.55;101497.94;7392473;19;20010;-65
2022/07/11 05:11:08;;;;;;;5.55;2.08;;;;;;;11.32;73.53;101504.03;7392759;19;20024;-65
2022/07/11 05:13:37;;;;;;;9.15;4.35;;;;;;;11.34;73.85;101502.25;7389651;19;20011;-65
2022/07/11 05:16:06;;;;;;;9.05;2.80;;;;;;;11.37;73.91;101511.84;7394931;19;20090;-66
2022/07/11 05:18:35;;;;;;;10.68;2.28;;;;;;;11.39;74.14;101510.06;7394057;19;20015;-66
2022/07/11 05:21:03;;;;;;;11.38;2.20;;;;;;;11.41;73.95;101508.28;7393188;19;20090;-66
2022/07/11 05:23:32;;;;;;;5.90;2.50;;;;;;;11.44;74.06;101513.50;7391865;19;20017;-65
2022/07/11 05:26:04;;;;;;;10.00;2.45;;;;;;;11.48;74.46;101512.56;7393344;19;20089;-66
2022/07/11 05:28:32;;;;;;;8.23;2.30;;;;;;;11.51;74.20;101520.44;7394714;19;20022;-66
2022/07/11 05:31:01;;;;;;;9.30;2.45;;;;;;;11.56;74.31;101522.97;7392147;19;20485;-66
2022/07/11 05:33:29;;;;;;;4.82;1.98;;;;;;;11.62;74.40;101525.53;7394462;19;20022;-66
2022/07/11 05:35:58;;;;;;;7.63;2.10;;;;;;;11.66;74.57;101519.31;7394136;19;20031;-65
2022/07/11 05:38:26;;;;;;;7.03;2.20;;;;;;;11.73;74.44;101525.38;7391504;19;20018;-65
2022/07/11 05:40:55;;;;;;;9.45;3.17;;;;;;;11.79;74.32;101519.16;7391510;19;20018;-66
2022/07/11 05:43:26;;;;;;;9.85;1.95;;;;;;;11.82;75.02;101512.09;7392533;19;20558;-66
2022/07/11 05:45:54;;;;;;;9.07;2.47;;;;;;;11.87;74.26;101514.66;7391288;19;20489;-67
2022/07/11 05:48:23;;;;;;;9.85;2.25;;;;;;;11.96;74.04;101521.59;7391434;19;20018;-65
2022/07/11 05:50:51;;;;;;;8.57;2.35;;;;;;;12.01;74.18;101522.38;7390772;19;20031;-65
2022/07/11 05:53:20;;;;;;;11.00;2.08;;;;;;;12.09;74.10;101531.00;7392978;19;20032;-65
2022/07/11 05:55:48;;;;;;;5.13;2.15;;;;;;;12.15;73.70;101528.28;7392013;19;20025;-66
2022/07/11 05:58:17;;;;;;;8.18;2.05;;;;;;;12.20;73.81;101529.09;7391584;19;20387;-66
2022/07/11 06:00:48;;;;;;;9.43;2.30;;;;;;;12.28;73.56;101530.72;7391962;19;20018;-66
2022/07/11 06:03:16;;;;;;;10.65;1.90;;;;;;;12.35;73.13;101527.13;7393426;19;20041;-66
2022/07/11 06:05:45;;;;;;;10.02;2.45;;;;;;;12.39;73.17;101524.38;7390576;19;20070;-65
2022/07/11 06:10:54;;;;;;;6.38;1.90;;;;;;;12.50;72.72;101524.22;7390869;19;20018;-66
2022/07/11 06:13:22;;;;;;;9.13;2.20;;;;;;;12.57;72.55;101524.97;7392795;19;20481;-66
2022/07/11 06:15:54;;;;;;;10.65;2.53;;;;;;;12.63;72.35;101534.53;7393793;19;20022;-66
2022/07/11 06:18:23;;;;;;;6.43;1.70;;;;;;;12.67;72.09;101523.03;7391096;19;20018;-67
2022/07/11 06:20:51;;;;;;;6.85;2.58;;;;;;;12.73;72.07;101524.72;7391525;19;20022;-67
2022/07/11 06:23:20;;;;;;;9.48;2.10;;;;;;;12.78;71.85;101526.34;7393109;19;20018;-65
2022/07/11 06:25:55;;;;;;;8.38;2.15;;;;;;;12.86;71.49;101526.19;7395913;19;20018;-65
2022/07/11 06:28:24;;;;;;;9.95;2.28;;;;;;;12.92;71.36;101531.34;7399622;19;20470;-65
2022/07/11 06:30:55;;;;;;;10.32;2.22;;;;;;;12.98;71.18;101533.03;7396948;19;20027;-66
2022/07/11 06:33:24;;;;;;;7.47;1.90;;;;;;;13.02;70.91;101535.53;7400401;19;20025;-66
2022/07/11 06:35:52;;;;;;;7.82;1.85;;;;;;;13.07;70.68;101546.00;7397043;19;20023;-66
2022/07/11 06:38:21;;;;;;;7.57;1.88;;;;;;;13.11;70.40;101539.78;7399365;19;20070;-65
2022/07/11 06:40:49;;;;;;;5.68;2.00;;;;;;;13.15;70.33;101544.06;7397299;19;20035;-66
2022/07/11 06:43:18;;;;;;;10.07;1.70;;;;;;;13.20;70.41;101544.00;7399297;19;20018;-65
2022/07/11 06:45:47;;;;;;;7.68;1.77;;;;;;;13.27;70.05;101542.09;7397162;19;20014;-66
2022/07/11 06:48:20;;;;;;;4.15;1.70;;;;;;;13.34;69.81;101533.16;7400126;19;20018;-66
2022/07/11 06:50:49;;;;;;;8.07;1.73;;;;;;;13.40;69.49;101530.44;7397034;19;20028;-66
2022/07/11 06:53:17;;;;;;;7.57;1.73;;;;;;;13.45;69.35;101531.22;7398398;19;20018;-67
2022/07/11 06:55:46;;;;;;;5.90;1.58;;;;;;;13.51;69.24;101533.72;7399574;19;20015;-67
2022/07/11 06:58:31;;;;;;;6.78;1.60;;;;;;;13.57;69.21;101537.13;7399312;19;20485;-65
2022/07/11 07:01:00;;;;;;;8.82;1.83;;;;;;;13.65;69.02;101535.22;7397312;19;20094;-66
2022/07/11 07:03:34;;;;;;;17.52;2.08;;;;;;;13.72;68.33;101538.56;7399554;19;20018;-65
2022/07/11 07:06:03;;;;;;;6.85;1.70;;;;;;;13.79;68.04;101538.38;7397536;19;20010;-65
2022/07/11 07:08:32;;;;;;;6.30;1.55;;;;;;;13.88;67.83;101537.31;7399679;19;20018;-67
2022/07/11 07:11:01;;;;;;;7.45;1.58;;;;;;;13.96;67.35;101531.84;7396417;19;20031;-67
2022/07/11 07:13:30;;;;;;;8.15;1.60;;;;;;;14.02;67.43;101531.72;7396197;19;20047;-65
2022/07/11 07:15:59;;;;;;;8.55;2.20;;;;;;;14.08;67.37;101534.22;7397960;19;20482;-65
2022/07/11 07:18:28;;;;;;;6.25;1.80;;;;;;;14.14;66.95;101528.78;7398625;19;20015;-66
2022/07/11 07:20:59;;;;;;;7.57;1.30;;;;;;;14.23;66.86;101537.38;7395959;19;20031;-66
2022/07/11 07:23:27;;;;;;;10.85;1.85;;;;;;;14.28;66.32;101532.84;7396495;19;20018;-66
2022/07/11 07:26:02;;;;;;;6.38;1.30;;;;;;;14.33;66.17;101533.59;7395000;19;20020;-66
2022/07/11 07:28:31;;;;;;;3.33;1.80;;;;;;;14.37;66.17;101527.34;7398888;19;20018;-66
2022/07/11 07:31:00;;;;;;;7.82;1.70;;;;;;;14.41;65.66;101530.78;7396504;19;20014;-66
2022/07/11 07:33:28;;;;;;;7.20;1.33;;;;;;;14.47;65.84;101542.06;7396266;19;20010;-66
2022/07/11 07:36:00;;;;;;;5.68;1.52;;;;;;;14.54;65.93;101541.91;7394544;19;20083;-67
2022/07/11 07:44:50;;;;;;;8.15;1.35;;;;;;;14.63;64.18;101544.28;7396948;19;19975;-66
2022/07/11 07:47:20;;;;;;;9.30;1.45;;;;;;;14.66;63.24;101539.84;7395975;19;20094;-66
2022/07/11 07:49:48;;;;;;;6.53;2.00;;;;;;;14.70;63.87;101545.91;7396077;19;20044;-65
2022/07/11 07:52:19;;;;;;;8.50;1.58;;;;;;;14.75;62.38;101554.59;7397686;19;20019;-66
2022/07/11 07:54:48;;;;;;;6.07;1.30;;;;;;;14.82;62.74;101550.00;7395512;19;20502;-66
2022/07/11 07:57:16;;;;;;;7.18;1.65;;;;;;;14.86;62.06;101558.72;7397195;19;20477;-65
2022/07/11 07:59:45;;;;;;;4.80;1.60;;;;;;;14.87;61.27;101557.81;7396308;19;20039;-66
2022/07/11 08:02:11;;;;;;;3.88;1.02;;;;;;;14.92;61.25;101545.34;7397451;19;20078;-66
2022/07/11 08:04:39;;;;;;;4.90;1.00;;;;;;;14.96;61.06;101549.63;7397314;19;20015;-66
2022/07/11 08:07:08;;;;;;;4.68;1.27;;;;;;;14.99;60.55;101560.13;7397386;19;20077;-65
2022/07/11 08:09:40;;;;;;;5.50;1.23;;;;;;;15.05;60.14;101546.75;7394601;19;20371;-62
2022/07/11 08:12:09;;;;;;;3.20;1.13;;;;;;;15.11;58.89;101554.50;7394430;19;20481;-65
2022/07/11 08:14:38;;;;;;;4.65;1.20;;;;;;;15.15;59.29;101545.56;7396765;19;20027;-65
2022/07/11 08:17:06;;;;;;;3.83;0.95;;;;;;;15.22;58.80;101543.63;7394166;19;20074;-65
2022/07/11 08:19:35;;;;;;;4.18;1.30;;;;;;;15.25;58.25;101538.25;7394407;19;20343;-65
2022/07/11 08:22:03;;;;;;;4.97;1.38;;;;;;;15.33;58.79;101540.69;7394628;19;20111;-66
2022/07/11 08:24:32;;;;;;;5.15;1.23;;;;;;;15.40;57.94;101541.34;7394219;19;20019;-65
2022/07/11 08:27:04;;;;;;;5.35;1.15;;;;;;;15.45;57.16;101537.66;7394688;19;20015;-65
2022/07/11 08:29:32;;;;;;;7.65;1.42;;;;;;;15.54;57.62;101547.09;7394665;19;20078;-63
2022/07/11 08:32:01;;;;;;;5.95;0.75;;;;;;;15.61;56.90;101545.16;7394295;19;20018;-65
2022/07/11 08:34:30;;;;;;;4.40;0.85;;;;;;;15.67;56.94;101530.84;7393797;19;20022;-64
2022/07/11 08:36:58;;;;;;;4.47;1.02;;;;;;;15.76;57.12;101544.69;7394086;19;20032;-64
2022/07/11 08:39:27;;;;;;;6.18;0.93;;;;;;;15.83;56.77;101533.94;7392992;19;20102;-64
2022/07/11 08:41:57;;;;;;;4.57;0.88;;;;;;;15.88;55.53;101532.00;7395609;19;20032;-64
2022/07/11 08:44:28;;;;;;;4.63;1.33;;;;;;;15.91;54.83;101537.19;7396401;19;20018;-64
2022/07/11 08:46:57;;;;;;;4.40;1.23;;;;;;;15.95;55.41;101533.56;7394594;19;20039;-64
2022/07/11 08:49:26;;;;;;;3.17;0.73;;;;;;;15.97;55.42;101537.00;7394192;19;20032;-69
2022/07/11 08:51:55;;;;;;;4.95;1.20;;;;;;;16.00;54.58;101526.34;7394365;19;20022;-68
2022/07/11 08:54:24;;;;;;;6.70;1.17;;;;;;;16.02;54.46;101535.06;7396227;19;20037;-65
2022/07/11 08:56:54;;;;;;;4.85;1.35;;;;;;;16.07;54.24;101530.50;7394123;19;20026;-64
2022/07/11 08:59:25;;;;;;;3.15;0.70;;;;;;;16.09;54.45;101541.91;7395553;19;20018;-65
2022/07/11 09:01:57;;;;;;;6.60;1.45;;;;;;;16.16;53.06;101531.13;7396101;19;20103;-65
2022/07/11 09:04:28;;;;;;;3.00;0.60;;;;;;;16.18;52.53;101534.59;7393789;19;20502;-67
2022/07/11 09:06:56;;;;;;;2.58;0.70;;;;;;;16.25;51.51;101530.81;7394048;19;20358;-67
2022/07/11 09:09:25;;;;;;;4.28;1.38;;;;;;;16.29;51.61;101532.47;7393524;19;20019;-66
2022/07/11 09:11:55;;;;;;;6.35;1.10;;;;;;;16.37;52.40;101526.91;7395173;19;20018;-67
2022/07/11 09:14:25;;;;;;;2.80;0.88;;;;;;;16.45;51.46;101528.38;7393534;19;20010;-67
2022/07/11 09:16:58;;;;;;;6.47;1.02;;;;;;;16.54;51.10;101523.69;7395174;19;20020;-67
2022/07/11 09:19:28;;;;;;;7.55;1.40;;;;;;;16.63;52.47;101527.78;7393897;19;20106;-67
2022/07/11 09:27:43;;;;;;;3.67;1.30;;;;;;;16.88;51.38;101525.16;7393234;19;20010;-68
2022/07/11 09:30:20;;;;;;;3.03;0.40;;;;;;;16.95;51.13;101516.09;7393225;19;20022;-68
2022/07/11 09:32:59;;;;;;;2.40;0.55;;;;;;;16.96;48.19;101523.13;7394153;19;20534;-68
2022/07/11 09:35:30;;;;;;;2.42;0.50;;;;;;;17.01;50.39;101515.00;7395071;19;20021;-64
2022/07/11 09:37:59;;;;;;;2.92;0.93;;;;;;;17.06;49.94;101513.03;7393752;19;20159;-67
2022/07/11 09:40:28;;;;;;;3.45;1.00;;;;;;;17.14;49.69;101520.75;7395201;19;20019;-67
2022/07/11 09:42:57;;;;;;;2.22;0.70;;;;;;;17.17;48.94;101526.75;7394801;19;20010;-67
2022/07/11 09:45:27;;;;;;;3.17;1.15;;;;;;;17.23;50.11;101517.72;7393022;19;20010;-67
2022/07/11 09:48:00;;;;;;;4.47;1.30;;;;;;;17.30;50.12;101521.00;7392195;19;20010;-67
2022/07/11 09:50:30;;;;;;;1.60;0.60;;;;;;;17.34;49.80;101527.91;7393052;19;20031;-68
2022/07/11 09:53:08;;;;;;;4.65;1.30;;;;;;;17.38;50.08;101519.78;7393780;19;20015;-68
2022/07/11 09:55:38;;;;;;;3.83;0.90;;;;;;;17.41;50.36;101513.50;7392323;19;20031;-68
2022/07/11 09:58:07;;;;;;;4.10;0.80;;;;;;;17.46;49.66;101521.31;7391903;19;20007;-68
2022/07/11 10:00:36;;;;;;;2.08;0.60;;;;;;;17.51;49.99;101514.03;7397807;19;20466;-68
2022/07/11 10:03:09;;;;;;;3.38;0.80;;;;;;;17.59;49.23;101519.88;7401197;19;20035;-68
2022/07/11 10:05:38;;;;;;;4.75;0.85;;;;;;;17.67;48.45;101514.31;7400462;19;20434;-68
2022/07/11 10:08:08;;;;;;;2.63;0.70;;;;;;;17.69;47.49;101518.63;7398288;19;20018;-67
2022/07/11 10:10:37;;;;;;;2.65;0.70;;;;;;;17.75;48.21;101505.13;7398895;19;20385;-68
2022/07/11 10:13:05;;;;;;;3.95;1.17;;;;;;;17.81;48.53;101505.81;7400950;19;20082;-67
2022/07/11 10:15:36;;;;;;;2.90;0.90;;;;;;;17.87;49.36;101508.22;7400832;19;20022;-68
2022/07/11 10:18:13;;;;;;;5.80;1.17;;;;;;;17.94;49.50;101500.88;7401206;19;20019;-67
2022/07/11 10:20:47;;;;;;;5.40;0.98;;;;;;;18.01;48.53;101511.19;7397698;19;20018;-67
2022/07/11 10:23:26;;;;;;;3.05;1.08;;;;;;;18.03;47.23;101512.00;7396719;19;20018;-67
2022/07/11 10:26:01;;;;;;;3.97;0.75;;;;;;;18.06;47.63;101517.16;7398909;19;20469;-68
2022/07/11 10:28:36;;;;;;;3.65;0.60;;;;;;;18.10;47.29;101517.91;7399978;19;20027;-67
2022/07/11 10:31:04;;;;;;;5.22;0.85;;;;;;;18.14;48.07;101514.19;7397551;19;20018;-67
2022/07/11 10:33:35;;;;;;;2.80;0.70;;;;;;;18.22;47.18;101511.22;7399545;19;20014;-67
2022/07/11 10:36:04;;;;;;;5.47;1.20;;;;;;;18.26;47.11;101515.50;7398899;19;20366;-67
2022/07/11 10:38:32;;;;;;;4.20;1.00;;;;;;;18.33;47.24;101514.28;7395678;19;20428;-66
2022/07/11 10:41:01;;;;;;;3.70;0.73;;;;;;;18.40;47.17;101510.47;7397098;19;20019;-65
2022/07/11 10:43:40;;;;;;;8.35;0.95;;;;;;;18.49;46.29;101511.00;7400181;19;20026;-66
2022/07/11 10:46:11;;;;;;;4.53;1.13;;;;;;;18.59;47.23;101514.09;7396879;19;20018;-66
2022/07/11 10:48:58;;;;;;;2.55;0.70;;;;;;;18.66;45.13;101515.59;7399329;19;20026;-66
2022/07/11 10:51:31;;;;;;;7.80;1.10;;;;;;;18.73;46.11;101517.91;7400050;19;20078;-66
2022/07/11 10:54:14;;;;;;;3.70;0.70;;;;;;;18.81;45.51;101512.25;7400249;19;20042;-66
2022/07/11 10:56:55;;;;;;;4.43;0.73;;;;;;;18.92;44.90;101514.47;7400185;19;20112;-66
2022/07/11 10:59:24;;;;;;;5.20;1.00;;;;;;;19.04;45.68;101507.72;7396387;19;20433;-66
2022/07/11 11:02:14;;;;;;;3.35;0.50;;;;;;;19.15;45.11;101518.75;7396959;19;20368;-69
2022/07/11 11:04:50;;;;;;;3.83;0.80;;;;;;;19.28;46.00;101507.53;7399715;19;20036;-67
2022/07/11 11:07:37;;;;;;;5.20;1.10;;;;;;;19.37;45.13;101507.97;7397510;19;20049;-66
2022/07/11 11:10:09;;;;;;;1.92;0.65;;;;;;;19.50;45.18;101508.25;7396839;19;20070;-67
2022/07/11 11:13:09;;;;;;;4.20;1.23;;;;;;;19.61;43.91;101515.72;7398540;19;20018;-67
2022/07/11 11:15:42;;;;;;;4.05;1.48;;;;;;;19.74;44.71;101504.50;7398599;19;20485;-67
2022/07/11 11:18:38;;;;;;;5.15;1.30;;;;;;;19.88;44.02;101506.50;7396235;19;20074;-67
2022/07/11 11:21:20;;;;;;;4.93;0.90;;;;;;;20.01;43.92;101508.50;7396186;19;20035;-67
2022/07/11 11:24:04;;;;;;;6.88;1.30;;;;;;;20.15;43.25;101504.31;7396129;19;20407;-68
2022/07/11 11:26:49;;;;;;;4.10;0.85;;;;;;;20.30;43.99;101495.53;7397125;19;20010;-68
2022/07/11 11:29:23;;;;;;;13.45;1.58;;;;;;;20.51;43.28;101509.56;7396540;19;20018;-66
2022/07/11 11:31:54;;;;;;;3.88;0.93;;;;;;;20.66;42.98;101499.91;7399033;19;20019;-66
2022/07/11 11:34:23;;;;;;;3.05;0.70;;;;;;;20.73;42.09;101499.63;7398435;19;20496;-67
2022/07/11 11:37:04;;;;;;;1.52;0.60;;;;;;;20.76;41.57;101504.78;7397629;19;20477;-66
2022/07/11 11:39:36;;;;;;;2.08;0.65;;;;;;;20.80;42.08;101509.88;7397860;19;20020;-67
2022/07/11 11:42:13;;;;;;;5.90;4.65;;;;;;;20.87;42.28;101501.56;7396500;19;20022;-67
2022/07/11 11:44:55;;;;;;;5.20;1.08;;;;;;;20.99;42.08;101498.22;7396228;19;20029;-68
2022/07/11 11:47:25;;;;;;;4.28;1.13;;;;;;;21.08;42.30;101488.84;7396796;19;20131;-68
2022/07/11 11:49:53;;;;;;;3.72;1.00;;;;;;;21.25;41.95;101495.94;7397563;19;20036;-67
2022/07/11 11:52:25;;;;;;;3.08;0.77;;;;;;;21.42;41.20;101498.56;7398441;19;20505;-67